METAR AND TAF INFORMATION
METAR FOR RJSC
ADDS - METARS form results

(0956 UTC 24 May 2019)
Data provider http://aviationweather.gov/metar/data/
 
METAR text: RJSC 240900Z 36010KT 9999 FEW050 BKN/// 20/14 Q1011
Conditions at: RJSC (YAMAGATA(CIV/JGS, JP) observed 0900 UTC 24 May 2019
Temperature: 20.0°C (68°F)
Dewpoint: 14.0°C (57°F) [RH = 68%]
Pressure (altimeter): 29.85 inches Hg (1011.0 mb)
Winds: from the N (360 degrees) at 12 MPH (10 knots; 5.1 m/s)
Visibility: 6 or more miles (10+ km)
Ceiling: at least 12,000 feet AGL
Clouds: few clouds at 5000 feet AGL
Weather: no significant weather observed at this time

 AIRPORT MAP

 RUNWAY INFORMATION
Runway 01 Runway length 6560 ft Runway width 150 ft
Runway elevation 347 ft Runway displaced threshold 0 ft Runway heading 7
Runway 19 Runway length 6560 ft Runway width 150 ft
Runway elevation 353 ft Runway displaced threshold 0 ft Runway heading 187

 AIRPORT FREQUENCIES
Type ACC Name TOKYO CON Frequency 118.9 MHZ
Type RDO Name RDO Frequency 122.7 MHZ

 AIRPORT NEAR NAVIGATION AIDS
Type VOR-DME Name Yamagata Frequency 113000 KHZ
Type VOR Name Zao-Yamada Frequency 110800 KHZ



Powered by Virtual Airlines Manager [v2.6.2]